Flight Track Log - Related Links

Times and Time Zones

All times are in EST time to prevent confusion due to time zone crossing. See the OPT332 flight status page for this flight to view local times or setup timezone preferences in your user account.

Time Position Orientation Groundspeed Altitude Reporting Facility
EST Latitude Longitude Course Direction KTS MPH feet Rate Location/Type
Tue 07:07:15 PM 41.8131 -87.7886 352° North 246 283 3,100  Level Chicago Center
Tue 07:08:17 PM 41.8103 -87.6936 92° East 218 251 6,900 3,435 Climbing Chicago Center
Tue 07:09:19 PM 41.8033 -87.5950 95° East 255 293 10,200 3,194 Climbing Chicago Center
Tue 07:10:21 PM 41.7950 -87.4869 96° East 284 327 13,500 2,613 Climbing Chicago Center
Tue 07:11:23 PM 41.7853 -87.3611 96° East 339 390 15,600 2,256 Climbing Chicago Center
Tue 07:12:00 PM 41.9113 -86.9887 80° East  Level Estimated
Tue 07:12:26 PM 41.7744 -87.2286 96° East 357 411 18,200  Level Chicago Center
Tue 07:13:28 PM 41.7639 -87.0892 96° East 376 433 20,400 2,177 Climbing Chicago Center
Tue 07:14:30 PM 41.7644 -86.9106 90° East 398 458 22,700 1,694 Climbing Chicago Center
Tue 07:15:32 PM 41.7647 -86.7500 90° East 427 491 23,900 726 Climbing Chicago Center
Tue 07:16:34 PM 41.7656 -86.5925 90° East 468 539 24,200 726 Climbing Chicago Center
Tue 07:17:36 PM 41.7675 -86.3731 89° East 493 567 25,400 1,065 Climbing Chicago Center
Tue 07:18:38 PM 41.7922 -86.1869 80° East 511 588 26,400 968 Climbing Chicago Center
Tue 07:19:40 PM 41.8233 -85.9997 77° East 514 592 27,400 1,016 Climbing Chicago Center
Tue 07:20:42 PM 41.8550 -85.8078 77° East 522 601 28,500 1,016 Climbing Chicago Center
Tue 07:21:44 PM 41.8889 -85.6136 77° East 528 608 29,500 968 Climbing Chicago Center
Tue 07:22:46 PM 41.9217 -85.4150 77° East 535 616 30,500 960 Climbing Chicago Center
Tue 07:23:49 PM 41.9525 -85.2172 78° East 536 617 31,500 1,056 Climbing Chicago Center
Tue 07:24:51 PM 41.9506 -84.9733 91° East 542 624 32,700 1,065 Climbing Chicago Center
Tue 07:25:53 PM 41.9678 -84.7708 83° East 546 628 33,700 968 Climbing Chicago Center
Tue 07:26:55 PM 42.0081 -84.5642 75° East 547 629 34,700 968 Climbing Chicago Center
Tue 07:27:57 PM 42.0461 -84.3658 75° East 550 633 35,700 1,030 Climbing Chicago Center
Tue 07:28:34 PM 42.0714 -84.2336 76° East 549 632 36,400 1,030 Climbing Cleveland Center
Tue 07:29:36 PM 42.1119 -84.0364 74° East 549 632 37,400 968 Climbing Cleveland Center
Tue 07:30:38 PM 42.1528 -83.8394 74° East 549 632 38,400 919 Climbing Cleveland Center
Tue 07:31:40 PM 42.1931 -83.6447 74° East 544 626 39,300 919 Climbing Cleveland Center
Tue 07:32:42 PM 42.2317 -83.4483 75° East 548 631 40,300 1,065 Climbing Cleveland Center
Tue 07:33:44 PM 42.2717 -83.2192 77° East 535 616 41,500 1,016 Climbing Cleveland Center
Tue 07:34:46 PM 42.2978 -83.0378 79° East 527 606 42,400 823 Climbing Cleveland Center
Tue 07:35:48 PM 42.3264 -82.8483 78° East 520 598 43,200 677 Climbing Cleveland Center
Tue 07:36:50 PM 42.3539 -82.6597 79° East 515 593 43,800 629 Climbing Cleveland Center
Tue 07:37:52 PM 42.3872 -82.4339 79° East 512 589 44,500 581 Climbing Cleveland Center
Tue 07:38:54 PM 42.4139 -82.2472 79° East 509 586 45,000 242 Climbing Cleveland Center
Tue 07:39:56 PM 42.4378 -82.0706 80° East 508 585 45,000  Level Cleveland Center
Tue 07:40:58 PM 42.4664 -81.8722 79° East 508 585 45,000  Level Cleveland Center
Tue 07:42:00 PM 42.4958 -81.6567 79° East 512 589 45,000  Level Cleveland Center
Tue 07:48:23 PM 42.6550 -80.4465 79° East 518 596 45,000 -176 Level FlightAware ADS-B
Tue 07:49:58 PM 42.6948 -80.1244 80° East 529 609 43,600 -962 Descending FlightAware ADS-B
Tue 07:50:34 PM 42.7087 -80.0100 81° East 534 615 42,900 -1,350 Descending FlightAware ADS-B
Tue 07:51:18 PM 42.7156 -79.9534 81° East 543 625 41,800 -1,442 Descending FlightAware ADS-B (CZBA)
Tue 07:52:18 PM 42.7469 -79.6911 81° East 558 642 40,400 -1,467 Descending FlightAware ADS-B (CZBA)
Tue 07:52:48 PM 42.7636 -79.5484 81° East 566 651 39,600 -1,600 Descending FlightAware ADS-B (CZBA)
Tue 07:53:18 PM 42.7755 -79.4465 81° East 571 657 38,800 -1,625 Descending FlightAware ADS-B (CZBA)
Tue 07:54:24 PM 42.8022 -79.2125 81° East 570 656 37,000 -1,814 Descending FlightAware ADS-B (CZBA)
Tue 07:56:10 PM 42.8432 -78.8453 81° East 539 620 33,600 -1,861 Descending FlightAware ADS-B
Tue 07:57:31 PM 42.8681 -78.6161 81° East 519 597 31,200 -1,846 Descending Cleveland Center
Tue 07:58:33 PM 42.8875 -78.4297 82° East 499 574 29,200 -1,935 Descending Cleveland Center
Tue 07:59:35 PM 42.9086 -78.2394 81° East 505 581 27,200 -2,129 Descending Cleveland Center
Tue 08:00:37 PM 42.9322 -78.0114 82° East 502 578 24,800 -2,129 Descending Cleveland Center
Tue 08:01:39 PM 42.9503 -77.8342 82° East 473 544 22,800 -1,984 Descending Cleveland Center
Tue 08:02:41 PM 42.9667 -77.6681 82° East 441 507 20,700 -1,984 Descending Cleveland Center
Tue 08:03:43 PM 42.9831 -77.5053 82° East 434 499 18,700 -1,742 Descending Cleveland Center
Tue 08:04:45 PM 42.9983 -77.3431 83° East 430 495 17,100 -1,728 Descending Cleveland Center
Tue 08:05:48 PM 43.0131 -77.1833 83° East 423 487 15,100 -1,968 Descending Cleveland Center
Tue 08:06:50 PM 43.0275 -77.0342 82° East 400 460 13,000 -1,456 Descending Cleveland Center
Tue 08:08:37 PM 43.0517 -76.7786 83° East 380 437 11,000 -1,508 Descending Boston Center
Tue 08:09:57 PM 43.0825 -76.6042 76° East 290 334 8,300 -1,902 Descending Boston Center
Tue 08:10:40 PM 43.1006 -76.5425 68° East 298 343 7,100 -1,967 Descending Boston Center
Tue 08:10:58 PM 43.1111 -76.4994 71° East 287 330 6,300 -1,869 Descending Boston Center
Tue 08:11:41 PM 43.1297 -76.4406 67° East 290 334 5,200 -1,279 Descending Boston Center
Tue 08:11:59 PM 43.1414 -76.3981 69° East 287 330 5,000 -900 Descending Boston Center
Tue 08:12:41 PM 43.1592 -76.3428 66° East 282 325 4,300 -1,400 Descending Boston Center
Tue 08:12:59 PM 43.1703 -76.3050 68° East 268 308 3,600 -1,279 Descending Boston Center
Tue 08:13:42 PM 43.1850 -76.2486 70° East 274 315 3,000 -610 Descending Boston Center
Tue 08:13:58 PM 43.1828 -76.2067 94° East 256 295 3,000  Level Boston Center
Tue 08:14:43 PM 43.1858 -76.1533 85° East 259 298 3,000  Level Boston Center
Tue 08:15:02 PM 43.1839 -76.1253 95° East 193 222 3,000 -393 Level Boston Center
Tue 08:15:44 PM 43.1819 -76.0864 94° East 206 237 2,600 -737 Descending Boston Center
Tue 08:15:59 PM 43.1719 -76.0689 128° Southeast 127 146 2,300 -789 Descending Boston Center
Tue 08:17:00 PM 43.1422 -76.0536 159° South 102 117 1,600 -679 Descending Boston Center
Tue 08:17:45 PM 43.1208 -76.0522 177° South 124 143 1,100 -590 Descending Boston Center
Tue 08:18:01 PM 43.1156 -76.0600 227° Southwest 99 114 1,000 -581 Descending Boston Center
Tue 08:18:47 PM 43.1092 -76.0892 253° West 115 132 500 -652 Descending Boston Center

Login

Don't have an account? Register now (free) for customized features, flight alerts, and more!